sensor_id;sensor_type;location;lat;lon;timestamp;P1;durP1;ratioP1;P2;durP2;ratioP2
27412;SDS011;14871;52.702;5.230;2024-03-02T00:00:10;3.50;;;1.63;;
27412;SDS011;14871;52.702;5.230;2024-03-02T00:02:45;2.53;;;1.33;;
27412;SDS011;14871;52.702;5.230;2024-03-02T00:05:13;4.90;;;1.52;;
27412;SDS011;14871;52.702;5.230;2024-03-02T00:07:52;2.88;;;1.55;;
27412;SDS011;14871;52.702;5.230;2024-03-02T00:10:44;4.25;;;1.40;;
27412;SDS011;14871;52.702;5.230;2024-03-02T00:13:09;1.98;;;1.40;;
27412;SDS011;14871;52.702;5.230;2024-03-02T00:18:18;4.43;;;1.73;;
27412;SDS011;14871;52.702;5.230;2024-03-02T00:21:04;3.95;;;1.48;;
27412;SDS011;14871;52.702;5.230;2024-03-02T00:23:34;2.03;;;1.20;;
27412;SDS011;14871;52.702;5.230;2024-03-02T00:26:00;2.13;;;1.58;;
27412;SDS011;14871;52.702;5.230;2024-03-02T00:30:59;2.78;;;1.40;;
27412;SDS011;14871;52.702;5.230;2024-03-02T00:33:34;3.25;;;1.20;;
27412;SDS011;14871;52.702;5.230;2024-03-02T00:36:04;5.90;;;1.60;;
27412;SDS011;14871;52.702;5.230;2024-03-02T00:38:31;5.10;;;1.95;;
27412;SDS011;14871;52.702;5.230;2024-03-02T00:40:59;2.05;;;1.30;;
27412;SDS011;14871;52.702;5.230;2024-03-02T00:46:22;3.42;;;1.40;;
27412;SDS011;14871;52.702;5.230;2024-03-02T00:51:14;3.88;;;1.75;;
27412;SDS011;14871;52.702;5.230;2024-03-02T00:53:40;4.32;;;1.70;;
27412;SDS011;14871;52.702;5.230;2024-03-02T00:56:05;4.65;;;1.73;;
27412;SDS011;14871;52.702;5.230;2024-03-02T00:58:35;4.20;;;1.40;;
27412;SDS011;14871;52.702;5.230;2024-03-02T01:01:01;3.50;;;1.55;;
27412;SDS011;14871;52.702;5.230;2024-03-02T01:03:27;2.83;;;1.13;;
27412;SDS011;14871;52.702;5.230;2024-03-02T01:05:53;1.42;;;1.08;;
27412;SDS011;14871;52.702;5.230;2024-03-02T01:08:18;1.67;;;1.25;;
27412;SDS011;14871;52.702;5.230;2024-03-02T01:10:44;1.95;;;1.25;;
27412;SDS011;14871;52.702;5.230;2024-03-02T01:13:09;2.03;;;1.00;;
27412;SDS011;14871;52.702;5.230;2024-03-02T01:15:35;1.95;;;0.90;;
27412;SDS011;14871;52.702;5.230;2024-03-02T01:18:01;1.90;;;0.70;;
27412;SDS011;14871;52.702;5.230;2024-03-02T01:20:26;1.08;;;0.60;;
27412;SDS011;14871;52.702;5.230;2024-03-02T01:22:52;0.73;;;0.38;;
27412;SDS011;14871;52.702;5.230;2024-03-02T01:25:18;0.30;;;0.20;;
27412;SDS011;14871;52.702;5.230;2024-03-02T01:27:44;0.55;;;0.30;;
27412;SDS011;14871;52.702;5.230;2024-03-02T01:30:09;0.10;;;0.10;;
27412;SDS011;14871;52.702;5.230;2024-03-02T01:32:37;0.40;;;0.13;;
27412;SDS011;14871;52.702;5.230;2024-03-02T01:35:03;0.60;;;0.22;;
27412;SDS011;14871;52.702;5.230;2024-03-02T01:37:30;0.17;;;0.13;;
27412;SDS011;14871;52.702;5.230;2024-03-02T01:39:55;0.20;;;0.20;;
27412;SDS011;14871;52.702;5.230;2024-03-02T01:42:21;1.45;;;0.35;;
27412;SDS011;14871;52.702;5.230;2024-03-02T01:44:47;1.38;;;0.20;;
27412;SDS011;14871;52.702;5.230;2024-03-02T01:47:13;0.45;;;0.20;;
27412;SDS011;14871;52.702;5.230;2024-03-02T01:49:38;0.52;;;0.20;;
27412;SDS011;14871;52.702;5.230;2024-03-02T01:52:06;0.32;;;0.30;;
27412;SDS011;14871;52.702;5.230;2024-03-02T01:54:32;0.20;;;0.20;;
27412;SDS011;14871;52.702;5.230;2024-03-02T01:56:58;0.77;;;0.40;;
27412;SDS011;14871;52.702;5.230;2024-03-02T01:59:24;0.20;;;0.20;;
27412;SDS011;14871;52.702;5.230;2024-03-02T02:01:50;0.77;;;0.28;;
27412;SDS011;14871;52.702;5.230;2024-03-02T02:04:16;0.65;;;0.30;;
27412;SDS011;14871;52.702;5.230;2024-03-02T02:06:42;0.30;;;0.20;;
27412;SDS011;14871;52.702;5.230;2024-03-02T02:09:09;0.68;;;0.20;;
27412;SDS011;14871;52.702;5.230;2024-03-02T02:11:35;0.40;;;0.20;;
27412;SDS011;14871;52.702;5.230;2024-03-02T02:14:00;1.20;;;0.30;;
27412;SDS011;14871;52.702;5.230;2024-03-02T02:16:26;2.58;;;0.40;;
27412;SDS011;14871;52.702;5.230;2024-03-02T02:18:52;1.02;;;0.40;;
27412;SDS011;14871;52.702;5.230;2024-03-02T02:21:17;0.75;;;0.30;;
27412;SDS011;14871;52.702;5.230;2024-03-02T02:23:47;1.45;;;0.40;;
27412;SDS011;14871;52.702;5.230;2024-03-02T02:26:13;0.63;;;0.50;;
27412;SDS011;14871;52.702;5.230;2024-03-02T02:28:39;0.82;;;0.47;;
27412;SDS011;14871;52.702;5.230;2024-03-02T02:31:11;0.85;;;0.55;;
27412;SDS011;14871;52.702;5.230;2024-03-02T02:33:40;0.50;;;0.43;;
27412;SDS011;14871;52.702;5.230;2024-03-02T02:36:06;1.25;;;0.60;;
27412;SDS011;14871;52.702;5.230;2024-03-02T02:38:32;1.95;;;0.80;;
27412;SDS011;14871;52.702;5.230;2024-03-02T02:41:01;1.00;;;0.75;;
27412;SDS011;14871;52.702;5.230;2024-03-02T02:43:27;0.63;;;0.50;;
27412;SDS011;14871;52.702;5.230;2024-03-02T02:45:53;1.40;;;0.55;;
27412;SDS011;14871;52.702;5.230;2024-03-02T02:48:18;0.50;;;0.38;;
27412;SDS011;14871;52.702;5.230;2024-03-02T02:50:44;0.52;;;0.35;;
27412;SDS011;14871;52.702;5.230;2024-03-02T02:53:10;1.70;;;0.50;;
27412;SDS011;14871;52.702;5.230;2024-03-02T02:55:35;1.45;;;0.88;;
27412;SDS011;14871;52.702;5.230;2024-03-02T02:58:05;2.22;;;1.30;;
27412;SDS011;14871;52.702;5.230;2024-03-02T03:00:31;0.90;;;0.75;;
27412;SDS011;14871;52.702;5.230;2024-03-02T03:02:57;1.40;;;0.95;;
27412;SDS011;14871;52.702;5.230;2024-03-02T03:05:23;3.03;;;1.38;;
27412;SDS011;14871;52.702;5.230;2024-03-02T03:07:48;1.45;;;1.20;;
27412;SDS011;14871;52.702;5.230;2024-03-02T03:10:15;1.20;;;1.08;;
27412;SDS011;14871;52.702;5.230;2024-03-02T03:12:41;1.17;;;0.80;;
27412;SDS011;14871;52.702;5.230;2024-03-02T03:15:08;0.82;;;0.80;;
27412;SDS011;14871;52.702;5.230;2024-03-02T03:17:34;1.00;;;0.65;;
27412;SDS011;14871;52.702;5.230;2024-03-02T03:20:01;0.60;;;0.57;;
27412;SDS011;14871;52.702;5.230;2024-03-02T03:22:28;1.13;;;0.70;;
27412;SDS011;14871;52.702;5.230;2024-03-02T03:24:53;0.70;;;0.60;;
27412;SDS011;14871;52.702;5.230;2024-03-02T03:27:19;0.82;;;0.50;;
27412;SDS011;14871;52.702;5.230;2024-03-02T03:29:44;1.08;;;0.52;;
27412;SDS011;14871;52.702;5.230;2024-03-02T03:32:10;1.90;;;0.40;;
27412;SDS011;14871;52.702;5.230;2024-03-02T03:34:36;1.80;;;0.60;;
27412;SDS011;14871;52.702;5.230;2024-03-02T03:37:02;1.08;;;0.52;;
27412;SDS011;14871;52.702;5.230;2024-03-02T03:39:28;1.60;;;0.50;;
27412;SDS011;14871;52.702;5.230;2024-03-02T03:41:53;1.83;;;0.55;;
27412;SDS011;14871;52.702;5.230;2024-03-02T03:44:19;1.17;;;0.60;;
27412;SDS011;14871;52.702;5.230;2024-03-02T03:46:45;0.63;;;0.50;;
27412;SDS011;14871;52.702;5.230;2024-03-02T03:49:10;0.95;;;0.60;;
27412;SDS011;14871;52.702;5.230;2024-03-02T03:51:36;1.23;;;0.60;;
27412;SDS011;14871;52.702;5.230;2024-03-02T03:54:02;1.38;;;0.50;;
27412;SDS011;14871;52.702;5.230;2024-03-02T03:56:27;1.35;;;0.63;;
27412;SDS011;14871;52.702;5.230;2024-03-02T03:58:53;1.27;;;0.50;;
27412;SDS011;14871;52.702;5.230;2024-03-02T04:01:19;2.22;;;0.73;;
27412;SDS011;14871;52.702;5.230;2024-03-02T04:03:44;1.02;;;0.30;;
27412;SDS011;14871;52.702;5.230;2024-03-02T04:06:10;0.65;;;0.50;;
27412;SDS011;14871;52.702;5.230;2024-03-02T04:08:35;0.60;;;0.30;;
27412;SDS011;14871;52.702;5.230;2024-03-02T04:11:01;0.85;;;0.63;;
27412;SDS011;14871;52.702;5.230;2024-03-02T04:13:27;1.30;;;0.65;;
27412;SDS011;14871;52.702;5.230;2024-03-02T04:15:53;0.65;;;0.60;;
27412;SDS011;14871;52.702;5.230;2024-03-02T04:18:19;1.55;;;0.75;;
27412;SDS011;14871;52.702;5.230;2024-03-02T04:20:44;2.05;;;0.65;;
27412;SDS011;14871;52.702;5.230;2024-03-02T04:23:10;1.42;;;0.77;;
27412;SDS011;14871;52.702;5.230;2024-03-02T04:25:35;1.15;;;0.80;;
27412;SDS011;14871;52.702;5.230;2024-03-02T04:28:01;1.17;;;0.70;;
27412;SDS011;14871;52.702;5.230;2024-03-02T04:30:27;2.63;;;0.80;;
27412;SDS011;14871;52.702;5.230;2024-03-02T04:32:52;1.20;;;0.80;;
27412;SDS011;14871;52.702;5.230;2024-03-02T04:35:18;1.02;;;0.80;;
27412;SDS011;14871;52.702;5.230;2024-03-02T04:37:43;0.75;;;0.57;;
27412;SDS011;14871;52.702;5.230;2024-03-02T04:40:09;1.17;;;0.50;;
27412;SDS011;14871;52.702;5.230;2024-03-02T04:42:35;1.80;;;0.55;;
27412;SDS011;14871;52.702;5.230;2024-03-02T04:45:01;2.28;;;0.60;;
27412;SDS011;14871;52.702;5.230;2024-03-02T04:47:27;1.83;;;0.50;;
27412;SDS011;14871;52.702;5.230;2024-03-02T04:49:53;0.47;;;0.30;;
27412;SDS011;14871;52.702;5.230;2024-03-02T04:52:18;1.58;;;0.60;;
27412;SDS011;14871;52.702;5.230;2024-03-02T04:54:44;1.48;;;0.60;;
27412;SDS011;14871;52.702;5.230;2024-03-02T04:57:28;2.67;;;0.60;;
27412;SDS011;14871;52.702;5.230;2024-03-02T04:59:54;1.92;;;0.70;;
27412;SDS011;14871;52.702;5.230;2024-03-02T05:02:19;0.82;;;0.55;;
27412;SDS011;14871;52.702;5.230;2024-03-02T05:04:45;3.55;;;0.52;;
27412;SDS011;14871;52.702;5.230;2024-03-02T05:07:10;1.23;;;0.68;;
27412;SDS011;14871;52.702;5.230;2024-03-02T05:09:36;2.28;;;0.50;;
27412;SDS011;14871;52.702;5.230;2024-03-02T05:12:02;2.13;;;0.70;;
27412;SDS011;14871;52.702;5.230;2024-03-02T05:14:46;3.03;;;0.50;;
27412;SDS011;14871;52.702;5.230;2024-03-02T05:17:12;1.15;;;0.47;;
27412;SDS011;14871;52.702;5.230;2024-03-02T05:19:37;2.25;;;0.35;;
27412;SDS011;14871;52.702;5.230;2024-03-02T05:22:03;1.05;;;0.45;;
27412;SDS011;14871;52.702;5.230;2024-03-02T05:24:29;1.42;;;0.60;;
27412;SDS011;14871;52.702;5.230;2024-03-02T05:26:55;2.53;;;0.70;;
27412;SDS011;14871;52.702;5.230;2024-03-02T05:29:20;2.97;;;0.60;;
27412;SDS011;14871;52.702;5.230;2024-03-02T05:31:46;0.90;;;0.85;;
27412;SDS011;14871;52.702;5.230;2024-03-02T05:34:12;2.03;;;0.50;;
27412;SDS011;14871;52.702;5.230;2024-03-02T05:36:38;3.53;;;0.50;;
27412;SDS011;14871;52.702;5.230;2024-03-02T05:39:04;0.68;;;0.52;;
27412;SDS011;14871;52.702;5.230;2024-03-02T05:41:31;2.08;;;0.60;;
27412;SDS011;14871;52.702;5.230;2024-03-02T05:43:57;2.83;;;0.60;;
27412;SDS011;14871;52.702;5.230;2024-03-02T05:46:22;1.20;;;0.45;;
27412;SDS011;14871;52.702;5.230;2024-03-02T05:48:48;1.23;;;0.50;;
27412;SDS011;14871;52.702;5.230;2024-03-02T05:51:13;1.35;;;0.75;;
27412;SDS011;14871;52.702;5.230;2024-03-02T05:53:39;2.17;;;0.60;;
27412;SDS011;14871;52.702;5.230;2024-03-02T05:56:05;2.78;;;0.85;;
27412;SDS011;14871;52.702;5.230;2024-03-02T05:58:32;1.67;;;0.90;;
27412;SDS011;14871;52.702;5.230;2024-03-02T06:01:20;3.20;;;0.85;;
27412;SDS011;14871;52.702;5.230;2024-03-02T06:03:53;2.58;;;0.93;;
27412;SDS011;14871;52.702;5.230;2024-03-02T06:06:22;2.10;;;0.90;;
27412;SDS011;14871;52.702;5.230;2024-03-02T06:08:48;1.88;;;0.98;;
27412;SDS011;14871;52.702;5.230;2024-03-02T06:11:13;3.03;;;0.65;;
27412;SDS011;14871;52.702;5.230;2024-03-02T06:13:39;2.60;;;0.70;;
27412;SDS011;14871;52.702;5.230;2024-03-02T06:16:04;2.05;;;0.75;;
27412;SDS011;14871;52.702;5.230;2024-03-02T06:18:30;2.30;;;1.15;;
27412;SDS011;14871;52.702;5.230;2024-03-02T06:20:56;2.58;;;0.60;;
27412;SDS011;14871;52.702;5.230;2024-03-02T06:23:21;1.38;;;0.63;;
27412;SDS011;14871;52.702;5.230;2024-03-02T06:25:47;1.75;;;0.50;;
27412;SDS011;14871;52.702;5.230;2024-03-02T06:28:13;2.53;;;0.70;;
27412;SDS011;14871;52.702;5.230;2024-03-02T06:30:40;1.90;;;0.65;;
27412;SDS011;14871;52.702;5.230;2024-03-02T06:33:07;2.00;;;0.70;;
27412;SDS011;14871;52.702;5.230;2024-03-02T06:35:32;1.95;;;0.80;;
27412;SDS011;14871;52.702;5.230;2024-03-02T06:37:58;2.67;;;0.60;;
27412;SDS011;14871;52.702;5.230;2024-03-02T06:40:24;0.90;;;0.65;;
27412;SDS011;14871;52.702;5.230;2024-03-02T06:42:49;1.67;;;0.70;;
27412;SDS011;14871;52.702;5.230;2024-03-02T06:45:15;1.83;;;0.70;;
27412;SDS011;14871;52.702;5.230;2024-03-02T06:47:40;0.93;;;0.68;;
27412;SDS011;14871;52.702;5.230;2024-03-02T06:50:06;0.85;;;0.47;;
27412;SDS011;14871;52.702;5.230;2024-03-02T06:52:32;3.38;;;1.08;;
27412;SDS011;14871;52.702;5.230;2024-03-02T06:54:57;8.05;;;0.60;;
27412;SDS011;14871;52.702;5.230;2024-03-02T06:57:23;2.30;;;0.75;;
27412;SDS011;14871;52.702;5.230;2024-03-02T06:59:49;1.00;;;0.47;;
27412;SDS011;14871;52.702;5.230;2024-03-02T07:02:16;0.95;;;0.47;;
27412;SDS011;14871;52.702;5.230;2024-03-02T07:04:42;2.22;;;0.80;;
27412;SDS011;14871;52.702;5.230;2024-03-02T07:07:07;1.30;;;0.40;;
27412;SDS011;14871;52.702;5.230;2024-03-02T07:09:33;2.05;;;0.70;;
27412;SDS011;14871;52.702;5.230;2024-03-02T07:11:58;2.50;;;0.73;;
27412;SDS011;14871;52.702;5.230;2024-03-02T07:14:24;2.22;;;0.77;;
27412;SDS011;14871;52.702;5.230;2024-03-02T07:17:10;2.85;;;1.00;;
27412;SDS011;14871;52.702;5.230;2024-03-02T07:19:35;5.93;;;0.90;;
27412;SDS011;14871;52.702;5.230;2024-03-02T07:22:05;1.85;;;0.60;;
27412;SDS011;14871;52.702;5.230;2024-03-02T07:24:31;1.35;;;0.60;;
27412;SDS011;14871;52.702;5.230;2024-03-02T07:26:57;4.88;;;0.75;;
27412;SDS011;14871;52.702;5.230;2024-03-02T07:29:23;3.00;;;0.70;;
27412;SDS011;14871;52.702;5.230;2024-03-02T07:31:48;2.13;;;0.55;;
27412;SDS011;14871;52.702;5.230;2024-03-02T07:34:14;2.25;;;0.85;;
27412;SDS011;14871;52.702;5.230;2024-03-02T07:36:39;4.65;;;0.50;;
27412;SDS011;14871;52.702;5.230;2024-03-02T07:39:05;4.47;;;0.77;;
27412;SDS011;14871;52.702;5.230;2024-03-02T07:41:32;2.83;;;0.50;;
27412;SDS011;14871;52.702;5.230;2024-03-02T07:43:58;4.13;;;0.98;;
27412;SDS011;14871;52.702;5.230;2024-03-02T07:46:23;2.05;;;0.40;;
27412;SDS011;14871;52.702;5.230;2024-03-02T07:48:49;2.60;;;0.77;;
27412;SDS011;14871;52.702;5.230;2024-03-02T07:51:16;2.25;;;0.80;;
27412;SDS011;14871;52.702;5.230;2024-03-02T07:53:42;3.28;;;0.80;;
27412;SDS011;14871;52.702;5.230;2024-03-02T07:56:08;4.78;;;1.33;;
27412;SDS011;14871;52.702;5.230;2024-03-02T07:58:33;2.83;;;0.93;;
27412;SDS011;14871;52.702;5.230;2024-03-02T08:01:00;2.78;;;0.90;;
27412;SDS011;14871;52.702;5.230;2024-03-02T08:03:26;4.63;;;0.98;;
27412;SDS011;14871;52.702;5.230;2024-03-02T08:05:52;1.30;;;0.63;;
27412;SDS011;14871;52.702;5.230;2024-03-02T08:08:17;1.65;;;0.90;;
27412;SDS011;14871;52.702;5.230;2024-03-02T08:10:43;4.25;;;0.65;;
27412;SDS011;14871;52.702;5.230;2024-03-02T08:13:09;1.95;;;0.60;;
27412;SDS011;14871;52.702;5.230;2024-03-02T08:15:34;2.30;;;0.75;;
27412;SDS011;14871;52.702;5.230;2024-03-02T08:18:00;3.53;;;0.68;;
27412;SDS011;14871;52.702;5.230;2024-03-02T08:20:26;1.98;;;0.85;;
27412;SDS011;14871;52.702;5.230;2024-03-02T08:22:52;3.83;;;0.82;;
27412;SDS011;14871;52.702;5.230;2024-03-02T08:25:20;2.60;;;0.82;;
27412;SDS011;14871;52.702;5.230;2024-03-02T08:27:46;2.80;;;0.73;;
27412;SDS011;14871;52.702;5.230;2024-03-02T08:30:12;0.98;;;0.50;;
27412;SDS011;14871;52.702;5.230;2024-03-02T08:32:37;2.80;;;0.85;;
27412;SDS011;14871;52.702;5.230;2024-03-02T08:35:04;2.50;;;0.68;;
27412;SDS011;14871;52.702;5.230;2024-03-02T08:37:30;2.85;;;0.80;;
27412;SDS011;14871;52.702;5.230;2024-03-02T08:39:55;1.30;;;0.68;;
27412;SDS011;14871;52.702;5.230;2024-03-02T08:42:21;2.00;;;0.80;;
27412;SDS011;14871;52.702;5.230;2024-03-02T08:44:47;2.25;;;0.60;;
27412;SDS011;14871;52.702;5.230;2024-03-02T08:47:13;3.28;;;0.70;;
27412;SDS011;14871;52.702;5.230;2024-03-02T08:49:39;1.45;;;0.63;;
27412;SDS011;14871;52.702;5.230;2024-03-02T08:52:05;5.07;;;1.20;;
27412;SDS011;14871;52.702;5.230;2024-03-02T08:54:30;3.80;;;0.90;;
27412;SDS011;14871;52.702;5.230;2024-03-02T08:56:57;6.55;;;0.98;;
27412;SDS011;14871;52.702;5.230;2024-03-02T08:59:23;3.47;;;0.98;;
27412;SDS011;14871;52.702;5.230;2024-03-02T09:01:50;5.10;;;1.13;;
27412;SDS011;14871;52.702;5.230;2024-03-02T09:04:15;4.25;;;0.70;;
27412;SDS011;14871;52.702;5.230;2024-03-02T09:06:41;3.53;;;0.95;;
27412;SDS011;14871;52.702;5.230;2024-03-02T09:09:07;6.07;;;1.10;;
27412;SDS011;14871;52.702;5.230;2024-03-02T09:11:33;4.13;;;1.15;;
27412;SDS011;14871;52.702;5.230;2024-03-02T09:13:59;3.38;;;0.80;;
27412;SDS011;14871;52.702;5.230;2024-03-02T09:16:25;3.55;;;0.65;;
27412;SDS011;14871;52.702;5.230;2024-03-02T09:18:55;1.58;;;0.52;;
27412;SDS011;14871;52.702;5.230;2024-03-02T09:21:21;2.22;;;0.70;;
27412;SDS011;14871;52.702;5.230;2024-03-02T09:23:47;2.25;;;0.57;;
27412;SDS011;14871;52.702;5.230;2024-03-02T09:26:14;1.20;;;0.40;;
27412;SDS011;14871;52.702;5.230;2024-03-02T09:28:43;2.88;;;0.50;;
27412;SDS011;14871;52.702;5.230;2024-03-02T09:31:09;3.85;;;0.52;;
27412;SDS011;14871;52.702;5.230;2024-03-02T09:33:34;2.95;;;0.70;;
27412;SDS011;14871;52.702;5.230;2024-03-02T09:36:00;3.30;;;1.02;;
27412;SDS011;14871;52.702;5.230;2024-03-02T09:38:25;2.95;;;0.82;;
27412;SDS011;14871;52.702;5.230;2024-03-02T09:40:51;1.70;;;0.57;;
27412;SDS011;14871;52.702;5.230;2024-03-02T09:43:17;4.53;;;0.65;;
27412;SDS011;14871;52.702;5.230;2024-03-02T09:45:42;3.22;;;0.45;;
27412;SDS011;14871;52.702;5.230;2024-03-02T09:48:10;1.05;;;0.43;;
27412;SDS011;14871;52.702;5.230;2024-03-02T09:50:35;4.95;;;0.90;;
27412;SDS011;14871;52.702;5.230;2024-03-02T09:53:01;2.80;;;0.57;;
27412;SDS011;14871;52.702;5.230;2024-03-02T09:55:27;2.10;;;0.70;;
27412;SDS011;14871;52.702;5.230;2024-03-02T09:57:53;2.50;;;0.60;;
27412;SDS011;14871;52.702;5.230;2024-03-02T10:00:18;2.92;;;0.73;;
27412;SDS011;14871;52.702;5.230;2024-03-02T10:02:44;3.10;;;0.60;;
27412;SDS011;14871;52.702;5.230;2024-03-02T10:05:11;3.92;;;0.70;;
27412;SDS011;14871;52.702;5.230;2024-03-02T10:07:37;4.00;;;0.68;;
27412;SDS011;14871;52.702;5.230;2024-03-02T10:10:15;3.05;;;0.77;;
27412;SDS011;14871;52.702;5.230;2024-03-02T10:12:41;3.47;;;0.70;;
27412;SDS011;14871;52.702;5.230;2024-03-02T10:15:07;2.78;;;0.60;;
27412;SDS011;14871;52.702;5.230;2024-03-02T10:17:34;2.30;;;0.65;;
27412;SDS011;14871;52.702;5.230;2024-03-02T10:20:07;5.22;;;1.00;;
27412;SDS011;14871;52.702;5.230;2024-03-02T10:22:54;2.17;;;0.75;;
27412;SDS011;14871;52.702;5.230;2024-03-02T10:25:34;5.03;;;0.95;;
27412;SDS011;14871;52.702;5.230;2024-03-02T10:28:00;5.50;;;0.65;;
27412;SDS011;14871;52.702;5.230;2024-03-02T10:30:27;3.50;;;0.82;;
27412;SDS011;14871;52.702;5.230;2024-03-02T10:32:53;2.50;;;0.60;;
27412;SDS011;14871;52.702;5.230;2024-03-02T10:35:20;1.80;;;0.50;;
27412;SDS011;14871;52.702;5.230;2024-03-02T10:37:47;2.60;;;0.60;;
27412;SDS011;14871;52.702;5.230;2024-03-02T10:40:13;4.13;;;0.52;;
27412;SDS011;14871;52.702;5.230;2024-03-02T10:42:39;1.95;;;0.80;;
27412;SDS011;14871;52.702;5.230;2024-03-02T10:45:07;2.28;;;0.50;;
27412;SDS011;14871;52.702;5.230;2024-03-02T10:47:36;3.25;;;0.50;;
27412;SDS011;14871;52.702;5.230;2024-03-02T10:50:04;4.68;;;0.75;;
27412;SDS011;14871;52.702;5.230;2024-03-02T10:52:39;2.85;;;0.60;;
27412;SDS011;14871;52.702;5.230;2024-03-02T10:55:09;2.63;;;0.70;;
27412;SDS011;14871;52.702;5.230;2024-03-02T11:00:21;3.20;;;0.80;;
27412;SDS011;14871;52.702;5.230;2024-03-02T11:02:58;3.15;;;0.80;;
27412;SDS011;14871;52.702;5.230;2024-03-02T11:05:28;4.00;;;0.70;;
27412;SDS011;14871;52.702;5.230;2024-03-02T11:08:01;4.28;;;0.80;;
27412;SDS011;14871;52.702;5.230;2024-03-02T11:10:35;3.17;;;0.73;;
27412;SDS011;14871;52.702;5.230;2024-03-02T11:13:09;1.75;;;0.88;;
27412;SDS011;14871;52.702;5.230;2024-03-02T11:15:36;2.88;;;1.08;;
27412;SDS011;14871;52.702;5.230;2024-03-02T11:18:03;3.35;;;0.70;;
27412;SDS011;14871;52.702;5.230;2024-03-02T11:20:33;5.88;;;1.00;;
27412;SDS011;14871;52.702;5.230;2024-03-02T11:23:08;3.42;;;0.80;;
27412;SDS011;14871;52.702;5.230;2024-03-02T11:25:35;2.50;;;0.80;;
27412;SDS011;14871;52.702;5.230;2024-03-02T11:28:04;2.42;;;1.00;;
27412;SDS011;14871;52.702;5.230;2024-03-02T11:35:25;4.15;;;0.70;;
27412;SDS011;14871;52.702;5.230;2024-03-02T11:37:51;5.45;;;0.95;;
27412;SDS011;14871;52.702;5.230;2024-03-02T11:40:35;5.22;;;0.82;;
27412;SDS011;14871;52.702;5.230;2024-03-02T11:43:04;2.53;;;0.60;;
27412;SDS011;14871;52.702;5.230;2024-03-02T11:45:31;5.30;;;0.90;;
27412;SDS011;14871;52.702;5.230;2024-03-02T11:47:58;3.22;;;0.60;;
27412;SDS011;14871;52.702;5.230;2024-03-02T11:50:34;2.53;;;0.65;;
27412;SDS011;14871;52.702;5.230;2024-03-02T11:53:08;3.63;;;0.82;;
27412;SDS011;14871;52.702;5.230;2024-03-02T11:55:35;4.30;;;0.70;;
27412;SDS011;14871;52.702;5.230;2024-03-02T11:58:05;3.70;;;0.63;;
27412;SDS011;14871;52.702;5.230;2024-03-02T12:00:30;3.38;;;0.98;;
27412;SDS011;14871;52.702;5.230;2024-03-02T12:05:32;3.95;;;0.88;;
27412;SDS011;14871;52.702;5.230;2024-03-02T12:07:58;5.00;;;0.75;;
27412;SDS011;14871;52.702;5.230;2024-03-02T12:10:25;4.78;;;0.80;;
27412;SDS011;14871;52.702;5.230;2024-03-02T12:13:01;4.32;;;0.88;;
27412;SDS011;14871;52.702;5.230;2024-03-02T12:15:29;3.88;;;0.70;;
27412;SDS011;14871;52.702;5.230;2024-03-02T12:17:57;3.53;;;0.70;;
27412;SDS011;14871;52.702;5.230;2024-03-02T12:20:23;1.88;;;0.80;;
27412;SDS011;14871;52.702;5.230;2024-03-02T12:22:53;3.15;;;0.80;;
27412;SDS011;14871;52.702;5.230;2024-03-02T12:25:20;4.47;;;0.85;;
27412;SDS011;14871;52.702;5.230;2024-03-02T12:27:49;4.93;;;1.10;;
27412;SDS011;14871;52.702;5.230;2024-03-02T12:30:17;3.33;;;0.75;;
27412;SDS011;14871;52.702;5.230;2024-03-02T12:32:43;2.50;;;0.88;;
27412;SDS011;14871;52.702;5.230;2024-03-02T12:35:10;3.33;;;0.70;;
27412;SDS011;14871;52.702;5.230;2024-03-02T12:37:46;2.85;;;0.70;;
27412;SDS011;14871;52.702;5.230;2024-03-02T12:40:13;3.90;;;0.95;;
27412;SDS011;14871;52.702;5.230;2024-03-02T12:42:40;3.80;;;1.10;;
27412;SDS011;14871;52.702;5.230;2024-03-02T12:45:09;3.05;;;0.90;;
27412;SDS011;14871;52.702;5.230;2024-03-02T12:47:35;2.30;;;0.60;;
27412;SDS011;14871;52.702;5.230;2024-03-02T12:50:01;2.83;;;0.65;;
27412;SDS011;14871;52.702;5.230;2024-03-02T12:52:28;2.22;;;0.70;;
27412;SDS011;14871;52.702;5.230;2024-03-02T12:54:54;4.63;;;1.13;;
27412;SDS011;14871;52.702;5.230;2024-03-02T12:57:26;5.38;;;0.80;;
27412;SDS011;14871;52.702;5.230;2024-03-02T13:00:03;4.72;;;0.95;;
27412;SDS011;14871;52.702;5.230;2024-03-02T13:02:34;3.33;;;0.75;;
27412;SDS011;14871;52.702;5.230;2024-03-02T13:05:01;3.08;;;1.10;;
27412;SDS011;14871;52.702;5.230;2024-03-02T13:07:27;3.75;;;1.08;;
27412;SDS011;14871;52.702;5.230;2024-03-02T13:09:54;5.15;;;0.60;;
27412;SDS011;14871;52.702;5.230;2024-03-02T13:12:21;4.60;;;0.70;;
27412;SDS011;14871;52.702;5.230;2024-03-02T13:14:49;3.35;;;0.88;;
27412;SDS011;14871;52.702;5.230;2024-03-02T13:17:18;4.70;;;0.60;;
27412;SDS011;14871;52.702;5.230;2024-03-02T13:20:18;4.70;;;0.80;;
27412;SDS011;14871;52.702;5.230;2024-03-02T13:22:39;2.90;;;0.50;;
27412;SDS011;14871;52.702;5.230;2024-03-02T13:25:04;2.00;;;0.47;;
27412;SDS011;14871;52.702;5.230;2024-03-02T13:27:31;3.53;;;0.88;;
27412;SDS011;14871;52.702;5.230;2024-03-02T13:29:57;3.03;;;0.68;;
27412;SDS011;14871;52.702;5.230;2024-03-02T13:32:23;2.35;;;0.70;;
27412;SDS011;14871;52.702;5.230;2024-03-02T13:34:50;2.47;;;0.70;;
27412;SDS011;14871;52.702;5.230;2024-03-02T13:37:16;1.10;;;0.50;;
27412;SDS011;14871;52.702;5.230;2024-03-02T13:39:42;3.50;;;0.93;;
27412;SDS011;14871;52.702;5.230;2024-03-02T13:42:08;2.58;;;0.60;;
27412;SDS011;14871;52.702;5.230;2024-03-02T13:44:34;4.20;;;0.70;;
27412;SDS011;14871;52.702;5.230;2024-03-02T13:47:00;2.30;;;0.80;;
27412;SDS011;14871;52.702;5.230;2024-03-02T13:49:26;3.50;;;0.95;;
27412;SDS011;14871;52.702;5.230;2024-03-02T13:52:03;2.47;;;0.70;;
27412;SDS011;14871;52.702;5.230;2024-03-02T13:54:36;2.47;;;0.70;;
27412;SDS011;14871;52.702;5.230;2024-03-02T13:57:03;3.00;;;0.95;;
27412;SDS011;14871;52.702;5.230;2024-03-02T13:59:29;3.35;;;1.02;;
27412;SDS011;14871;52.702;5.230;2024-03-02T14:01:54;4.28;;;0.90;;
27412;SDS011;14871;52.702;5.230;2024-03-02T14:04:20;3.20;;;0.90;;
27412;SDS011;14871;52.702;5.230;2024-03-02T14:06:49;4.10;;;0.60;;
27412;SDS011;14871;52.702;5.230;2024-03-02T14:09:15;3.30;;;1.05;;
27412;SDS011;14871;52.702;5.230;2024-03-02T14:11:41;3.38;;;0.70;;
27412;SDS011;14871;52.702;5.230;2024-03-02T14:14:06;3.50;;;0.73;;
27412;SDS011;14871;52.702;5.230;2024-03-02T14:16:32;3.58;;;0.63;;
27412;SDS011;14871;52.702;5.230;2024-03-02T14:18:59;5.57;;;1.20;;
27412;SDS011;14871;52.702;5.230;2024-03-02T14:21:29;3.17;;;0.73;;
27412;SDS011;14871;52.702;5.230;2024-03-02T14:23:55;3.38;;;0.60;;
27412;SDS011;14871;52.702;5.230;2024-03-02T14:26:21;2.85;;;0.75;;
27412;SDS011;14871;52.702;5.230;2024-03-02T14:28:46;5.38;;;1.17;;
27412;SDS011;14871;52.702;5.230;2024-03-02T14:31:13;2.58;;;0.60;;
27412;SDS011;14871;52.702;5.230;2024-03-02T14:33:39;2.30;;;0.70;;
27412;SDS011;14871;52.702;5.230;2024-03-02T14:36:04;3.33;;;0.57;;
27412;SDS011;14871;52.702;5.230;2024-03-02T14:38:31;2.20;;;0.55;;
27412;SDS011;14871;52.702;5.230;2024-03-02T14:40:57;2.30;;;0.63;;
27412;SDS011;14871;52.702;5.230;2024-03-02T14:43:23;5.63;;;0.80;;
27412;SDS011;14871;52.702;5.230;2024-03-02T14:45:49;2.22;;;0.60;;
27412;SDS011;14871;52.702;5.230;2024-03-02T14:48:15;2.85;;;0.57;;
27412;SDS011;14871;52.702;5.230;2024-03-02T14:50:41;2.38;;;0.70;;
27412;SDS011;14871;52.702;5.230;2024-03-02T14:53:07;2.50;;;0.50;;
27412;SDS011;14871;52.702;5.230;2024-03-02T14:55:33;1.88;;;0.47;;
27412;SDS011;14871;52.702;5.230;2024-03-02T14:58:00;3.05;;;0.60;;
27412;SDS011;14871;52.702;5.230;2024-03-02T15:00:26;2.13;;;0.60;;
27412;SDS011;14871;52.702;5.230;2024-03-02T15:02:51;2.15;;;0.50;;
27412;SDS011;14871;52.702;5.230;2024-03-02T15:05:17;3.17;;;0.75;;
27412;SDS011;14871;52.702;5.230;2024-03-02T15:07:43;4.43;;;0.70;;